createdAt,value
2018-07-19T00:02:14.806Z,20.30
2018-07-19T00:04:43.634Z,20.30
2018-07-19T00:07:12.387Z,20.30
2018-07-19T00:09:41.167Z,20.40
2018-07-19T00:12:09.943Z,20.40
2018-07-19T00:14:38.751Z,20.30
2018-07-19T00:17:07.882Z,20.30
2018-07-19T00:19:36.708Z,20.20
2018-07-19T00:22:05.491Z,20.20
2018-07-19T00:24:34.273Z,20.20
2018-07-19T00:27:03.073Z,20.20
2018-07-19T00:29:31.859Z,20.30
2018-07-19T00:32:00.628Z,20.20
2018-07-19T00:34:29.440Z,20.10
2018-07-19T00:36:58.214Z,20.10
2018-07-19T00:39:27.002Z,20.10
2018-07-19T00:41:55.853Z,20.10
2018-07-19T00:44:24.722Z,20.10
2018-07-19T00:46:53.490Z,20.10
2018-07-19T00:49:22.283Z,20.10
2018-07-19T00:51:51.023Z,20.20
2018-07-19T00:54:19.758Z,20.20
2018-07-19T00:56:48.607Z,20.20
2018-07-19T00:59:17.425Z,20.20
2018-07-19T01:01:46.199Z,20.20
2018-07-19T01:04:15.044Z,20.30
2018-07-19T01:06:43.809Z,20.20
2018-07-19T01:09:12.756Z,20.10
2018-07-19T01:11:41.582Z,20.00
2018-07-19T01:14:10.694Z,19.90
2018-07-19T01:16:39.447Z,19.90
2018-07-19T01:19:08.261Z,19.90
2018-07-19T01:21:37.134Z,19.90
2018-07-19T01:24:06.036Z,19.80
2018-07-19T01:26:34.834Z,19.70
2018-07-19T01:29:03.654Z,19.60
2018-07-19T01:34:00.844Z,19.50
2018-07-19T01:36:31.298Z,19.40
2018-07-19T01:39:00.074Z,19.40
2018-07-19T01:41:42.652Z,19.30
2018-07-19T01:44:11.429Z,19.30
2018-07-19T01:46:40.244Z,19.30
2018-07-19T01:49:09.026Z,19.30
2018-07-19T01:51:37.839Z,19.30
2018-07-19T01:54:06.612Z,19.30
2018-07-19T01:56:35.829Z,19.30
2018-07-19T01:59:05.289Z,19.30
2018-07-19T02:01:34.066Z,19.30
2018-07-19T02:04:02.888Z,19.40
2018-07-19T02:06:31.620Z,19.40
2018-07-19T02:09:00.401Z,19.40
2018-07-19T02:11:29.125Z,19.50
2018-07-19T02:13:57.870Z,19.50
2018-07-19T02:16:26.656Z,19.50
2018-07-19T02:18:56.066Z,19.50
2018-07-19T02:21:24.846Z,19.60
2018-07-19T02:23:53.654Z,19.50
2018-07-19T02:28:50.784Z,19.60
2018-07-19T02:31:19.607Z,19.50
2018-07-19T02:33:48.347Z,19.50
2018-07-19T02:36:17.069Z,19.50
2018-07-19T02:38:45.811Z,19.60
2018-07-19T02:41:14.635Z,19.60
2018-07-19T02:43:43.506Z,19.60
2018-07-19T02:46:12.286Z,19.60
2018-07-19T02:48:41.017Z,19.60
2018-07-19T02:51:09.809Z,19.60
2018-07-19T02:53:38.603Z,19.60
2018-07-19T02:56:07.506Z,19.60
2018-07-19T02:58:36.308Z,19.50
2018-07-19T03:01:05.101Z,19.60
2018-07-19T03:03:33.869Z,19.50
2018-07-19T03:06:02.681Z,19.50
2018-07-19T03:08:31.508Z,19.50
2018-07-19T03:11:00.314Z,19.50
2018-07-19T03:13:29.091Z,19.50
2018-07-19T03:15:57.806Z,19.50
2018-07-19T03:18:26.629Z,19.40
2018-07-19T03:20:55.399Z,19.40
2018-07-19T03:23:24.195Z,19.40
2018-07-19T03:25:53.019Z,19.40
2018-07-19T03:28:21.795Z,19.30
2018-07-19T03:30:50.738Z,19.30
2018-07-19T03:33:19.517Z,19.30
2018-07-19T03:35:48.324Z,19.30
2018-07-19T03:38:17.073Z,19.20
2018-07-19T03:40:45.877Z,19.20
2018-07-19T03:43:14.691Z,19.20
2018-07-19T03:45:43.682Z,19.20
2018-07-19T03:48:12.492Z,19.20
2018-07-19T03:50:41.380Z,19.20
2018-07-19T03:53:09.981Z,19.20
2018-07-19T03:55:38.831Z,19.20
2018-07-19T03:58:07.561Z,19.30
2018-07-19T04:00:36.355Z,19.30
2018-07-19T04:03:05.154Z,19.30
2018-07-19T04:05:33.905Z,19.30
2018-07-19T04:08:02.705Z,19.40
2018-07-19T04:10:31.543Z,19.40
2018-07-19T04:13:00.339Z,19.40
2018-07-19T04:15:29.085Z,19.40
2018-07-19T04:17:58.523Z,19.40
2018-07-19T04:20:28.534Z,19.40
2018-07-19T04:22:57.581Z,19.40
2018-07-19T04:25:27.228Z,19.50
2018-07-19T04:27:56.902Z,19.50
2018-07-19T04:30:25.806Z,19.60
2018-07-19T04:32:54.694Z,19.70
2018-07-19T04:35:23.398Z,19.70
2018-07-19T04:37:52.130Z,19.70
2018-07-19T04:40:20.882Z,19.80
2018-07-19T04:42:49.578Z,19.80
2018-07-19T04:45:18.316Z,19.90
2018-07-19T04:50:15.576Z,20.00
2018-07-19T04:52:44.302Z,20.00
2018-07-19T04:55:13.067Z,20.10
2018-07-19T04:57:41.803Z,20.10
2018-07-19T05:00:10.595Z,20.10
2018-07-19T05:02:39.347Z,20.20
2018-07-19T05:05:08.080Z,20.20
2018-07-19T05:07:36.855Z,20.30
2018-07-19T05:10:05.603Z,20.30
2018-07-19T05:12:34.371Z,20.40
2018-07-19T05:15:03.291Z,20.40
2018-07-19T05:17:31.984Z,20.50
2018-07-19T05:22:29.255Z,20.60
2018-07-19T05:24:58.028Z,20.70
2018-07-19T05:27:26.764Z,20.70
2018-07-19T05:29:55.510Z,20.80
2018-07-19T05:32:24.219Z,20.80
2018-07-19T05:37:21.323Z,20.70
2018-07-19T05:39:50.147Z,20.80
2018-07-19T05:42:19.014Z,20.80
2018-07-19T05:44:47.747Z,20.80
2018-07-19T05:47:16.731Z,20.80
2018-07-19T05:49:45.562Z,20.80
2018-07-19T05:52:14.359Z,20.80
2018-07-19T05:54:43.052Z,20.80
2018-07-19T05:57:11.822Z,20.90
2018-07-19T06:02:09.216Z,21.10
2018-07-19T06:04:38.090Z,21.20
2018-07-19T06:07:06.920Z,21.30
2018-07-19T06:09:35.795Z,21.30
2018-07-19T06:12:04.603Z,21.30
2018-07-19T06:17:01.733Z,21.30
2018-07-19T06:19:30.713Z,21.30
2018-07-19T06:21:59.354Z,21.40
2018-07-19T06:24:28.075Z,21.50
2018-07-19T06:26:56.782Z,21.70
2018-07-19T06:29:25.596Z,21.80
2018-07-19T06:31:54.362Z,21.80
2018-07-19T06:34:23.198Z,21.80
2018-07-19T06:36:51.950Z,21.80
2018-07-19T06:39:20.856Z,21.80
2018-07-19T06:41:49.636Z,21.90
2018-07-19T06:44:18.416Z,22.10
2018-07-19T06:46:47.308Z,22.20
2018-07-19T06:49:16.042Z,22.20
2018-07-19T06:51:44.839Z,22.30
2018-07-19T06:54:13.557Z,22.40
2018-07-19T06:56:42.331Z,22.50
2018-07-19T06:59:11.081Z,22.50
2018-07-19T07:01:39.814Z,22.50
2018-07-19T07:04:08.567Z,22.70
2018-07-19T07:06:37.357Z,22.80
2018-07-19T07:09:08.371Z,22.90
2018-07-19T07:11:37.123Z,22.90
2018-07-19T07:14:06.072Z,22.70
2018-07-19T07:16:34.877Z,22.60
2018-07-19T07:19:03.541Z,22.60
2018-07-19T07:24:00.730Z,22.80
2018-07-19T07:26:29.548Z,22.90
2018-07-19T07:28:58.345Z,23.00
2018-07-19T07:31:27.146Z,23.20
2018-07-19T07:33:55.872Z,23.30
2018-07-19T07:36:24.594Z,23.20
2018-07-19T07:38:53.342Z,23.20
2018-07-19T07:41:22.087Z,23.20
2018-07-19T07:43:50.945Z,23.20
2018-07-19T07:48:48.091Z,23.30
2018-07-19T07:51:16.847Z,23.20
2018-07-19T07:53:45.613Z,23.20
2018-07-19T07:56:14.433Z,23.30
2018-07-19T07:58:43.313Z,23.50
2018-07-19T08:01:12.081Z,23.70
2018-07-19T08:03:40.852Z,23.80
2018-07-19T08:06:09.762Z,23.90
2018-07-19T08:11:07.202Z,24.10
2018-07-19T08:13:35.978Z,24.30
2018-07-19T08:16:04.939Z,24.50
2018-07-19T08:18:34.302Z,24.70
2018-07-19T08:21:03.044Z,24.70
2018-07-19T08:23:31.854Z,24.80
2018-07-19T08:26:00.743Z,24.90
2018-07-19T08:28:29.539Z,25.00
2018-07-19T08:30:58.281Z,24.90
2018-07-19T08:33:27.059Z,25.00
2018-07-19T08:35:55.858Z,25.10
2018-07-19T08:38:24.648Z,25.00
2018-07-19T08:40:53.445Z,25.00
2018-07-19T08:43:22.165Z,25.20
2018-07-19T08:45:50.973Z,25.40
2018-07-19T08:48:19.834Z,25.60
2018-07-19T08:50:48.722Z,25.70
2018-07-19T08:53:17.578Z,25.80
2018-07-19T08:55:46.316Z,25.90
2018-07-19T08:58:15.077Z,25.90
2018-07-19T09:00:43.957Z,26.00
2018-07-19T09:03:12.756Z,26.20
2018-07-19T09:05:41.543Z,26.30
2018-07-19T09:08:10.334Z,26.40
2018-07-19T09:10:39.117Z,26.30
2018-07-19T09:13:07.921Z,26.20
2018-07-19T09:15:36.671Z,26.10
2018-07-19T09:18:05.998Z,26.10
2018-07-19T09:20:34.842Z,26.20
2018-07-19T09:23:03.693Z,26.30
2018-07-19T09:25:32.478Z,26.50
2018-07-19T09:28:01.198Z,26.70
2018-07-19T09:30:30.033Z,27.00
2018-07-19T09:33:01.586Z,27.10
2018-07-19T09:35:30.418Z,27.10
2018-07-19T09:37:59.560Z,27.30
2018-07-19T09:40:28.500Z,27.30
2018-07-19T09:42:57.424Z,27.40
2018-07-19T09:45:26.296Z,27.60
2018-07-19T09:47:55.185Z,27.60
2018-07-19T09:50:24.200Z,27.80
2018-07-19T09:52:53.030Z,27.80
2018-07-19T09:55:22.114Z,27.80
2018-07-19T09:57:52.365Z,27.70
2018-07-19T10:00:26.677Z,27.70
2018-07-19T10:02:55.627Z,27.70
2018-07-19T10:05:24.566Z,27.70
2018-07-19T10:07:53.485Z,27.80
2018-07-19T10:10:22.360Z,28.10
2018-07-19T10:12:51.154Z,28.30
2018-07-19T10:15:20.093Z,28.50
2018-07-19T10:17:48.858Z,28.70
2018-07-19T10:20:22.995Z,28.90
2018-07-19T10:22:51.841Z,29.10
2018-07-19T10:25:20.695Z,29.20
2018-07-19T10:27:49.609Z,29.40
2018-07-19T10:30:18.618Z,29.50
2018-07-19T10:32:47.618Z,29.40
2018-07-19T10:35:16.594Z,29.60
2018-07-19T10:37:46.846Z,29.60
2018-07-19T10:40:15.786Z,29.70
2018-07-19T10:42:45.999Z,29.90
2018-07-19T10:45:16.132Z,29.80
2018-07-19T10:50:14.230Z,29.90
2018-07-19T10:55:16.266Z,29.70
2018-07-19T10:57:45.040Z,29.80
2018-07-19T11:00:13.844Z,30.00
2018-07-19T11:02:45.080Z,30.00
2018-07-19T11:05:17.636Z,29.70
2018-07-19T11:07:46.467Z,29.90
2018-07-19T11:10:15.405Z,29.90
2018-07-19T11:12:44.461Z,30.20
2018-07-19T11:15:13.456Z,30.20
2018-07-19T11:17:42.375Z,30.40
2018-07-19T11:20:11.253Z,30.70
2018-07-19T11:22:40.180Z,31.10
2018-07-19T11:25:09.394Z,31.40
2018-07-19T11:27:38.167Z,31.60
2018-07-19T11:30:07.111Z,31.60
2018-07-19T11:32:35.965Z,31.50
2018-07-19T11:37:34.306Z,31.20
2018-07-19T11:40:03.132Z,31.20
2018-07-19T11:42:32.233Z,31.40
2018-07-19T11:45:01.178Z,31.40
2018-07-19T11:47:30.102Z,31.50
2018-07-19T11:49:59.579Z,31.20
2018-07-19T11:52:28.392Z,30.80
2018-07-19T11:55:00.970Z,30.80
2018-07-19T11:57:29.808Z,30.70
2018-07-19T12:00:00.501Z,30.80
2018-07-19T12:02:29.390Z,31.30
2018-07-19T12:04:58.292Z,31.60
2018-07-19T12:07:27.181Z,31.80
2018-07-19T12:09:56.431Z,31.40
2018-07-19T12:14:54.377Z,31.70
2018-07-19T12:17:23.235Z,31.90
2018-07-19T12:19:52.250Z,32.20
2018-07-19T12:22:21.349Z,32.20
2018-07-19T12:24:50.441Z,32.20
2018-07-19T12:27:19.667Z,32.40
2018-07-19T12:29:48.563Z,32.40
2018-07-19T12:32:17.629Z,32.10
2018-07-19T12:34:46.520Z,31.60
2018-07-19T12:39:43.948Z,31.20
2018-07-19T12:42:13.067Z,31.00
2018-07-19T12:44:42.052Z,30.80
2018-07-19T12:47:10.881Z,30.50
2018-07-19T12:49:39.897Z,30.30
2018-07-19T12:52:08.903Z,30.00
2018-07-19T12:54:37.762Z,29.80
2018-07-19T12:57:06.915Z,29.60
2018-07-19T12:59:36.352Z,29.20
2018-07-19T13:02:05.280Z,29.10
2018-07-19T13:04:34.241Z,29.10
2018-07-19T13:07:03.131Z,29.30
2018-07-19T13:09:32.113Z,29.20
2018-07-19T13:12:01.025Z,29.30
2018-07-19T13:14:31.025Z,29.40
2018-07-19T13:16:59.971Z,29.60
2018-07-19T13:19:28.739Z,29.70
2018-07-19T13:21:57.670Z,29.50
2018-07-19T13:24:26.776Z,29.50
2018-07-19T13:26:55.756Z,29.60
2018-07-19T13:31:53.596Z,29.90
2018-07-19T13:34:27.416Z,30.30
2018-07-19T13:36:56.305Z,30.80
2018-07-19T13:39:25.213Z,31.40
2018-07-19T13:41:54.252Z,31.80
2018-07-19T13:44:23.289Z,31.90
2018-07-19T13:46:52.356Z,32.00
2018-07-19T13:49:21.341Z,32.30
2018-07-19T13:51:50.422Z,32.50
2018-07-19T13:56:53.579Z,32.50
2018-07-19T13:59:22.729Z,32.30
2018-07-19T14:01:51.741Z,32.10
2018-07-19T14:04:20.661Z,31.80
2018-07-19T14:06:49.630Z,31.50
2018-07-19T14:09:18.565Z,31.50
2018-07-19T14:11:47.651Z,31.30
2018-07-19T14:14:16.743Z,31.20
2018-07-19T14:16:45.753Z,31.10
2018-07-19T14:19:14.932Z,31.10
2018-07-19T14:24:12.515Z,30.70
2018-07-19T14:26:41.519Z,30.70
2018-07-19T14:29:10.471Z,30.50
2018-07-19T14:31:39.517Z,30.40
2018-07-19T14:34:08.431Z,30.40
2018-07-19T14:36:37.389Z,30.40
2018-07-19T14:39:10.072Z,30.50
2018-07-19T14:44:08.196Z,31.10
2018-07-19T14:46:37.250Z,31.10
2018-07-19T14:49:06.473Z,31.10
2018-07-19T14:51:35.540Z,31.30
2018-07-19T14:54:04.445Z,31.30
2018-07-19T14:56:33.419Z,31.00
2018-07-19T14:59:02.371Z,31.20
2018-07-19T15:01:31.454Z,31.60
2018-07-19T15:04:00.649Z,31.60
2018-07-19T15:06:29.689Z,31.90
2018-07-19T15:08:58.745Z,32.20
2018-07-19T15:11:27.880Z,32.50
2018-07-19T15:13:56.963Z,32.60
2018-07-19T15:16:26.139Z,32.70
2018-07-19T15:18:55.262Z,32.70
2018-07-19T15:21:24.388Z,32.60
2018-07-19T15:23:53.438Z,32.10
2018-07-19T15:26:22.459Z,32.00
2018-07-19T15:28:51.716Z,32.20
2018-07-19T15:31:20.700Z,32.10
2018-07-19T15:33:49.755Z,32.10
2018-07-19T15:36:18.714Z,32.00
2018-07-19T15:38:47.728Z,31.90
2018-07-19T15:43:45.549Z,31.90
2018-07-19T15:46:14.552Z,31.90
2018-07-19T15:48:43.579Z,31.60
2018-07-19T15:51:12.582Z,31.30
2018-07-19T15:53:41.594Z,31.10
2018-07-19T15:56:10.581Z,30.90
2018-07-19T15:58:39.603Z,30.90
2018-07-19T16:01:08.659Z,30.80
2018-07-19T16:03:37.763Z,30.80
2018-07-19T16:06:07.011Z,30.70
2018-07-19T16:08:36.253Z,30.70
2018-07-19T16:11:05.447Z,30.70
2018-07-19T16:13:34.651Z,30.90
2018-07-19T16:16:03.837Z,30.80
2018-07-19T16:21:01.710Z,30.60
2018-07-19T16:23:30.866Z,30.40
2018-07-19T16:25:59.802Z,30.30
2018-07-19T16:28:28.745Z,30.30
2018-07-19T16:30:57.791Z,30.30
2018-07-19T16:33:26.831Z,30.30
2018-07-19T16:35:55.917Z,29.90
2018-07-19T16:38:25.175Z,29.80
2018-07-19T16:40:54.332Z,29.80
2018-07-19T16:43:23.537Z,29.70
2018-07-19T16:45:52.889Z,29.60
2018-07-19T16:48:22.679Z,29.50
2018-07-19T16:50:51.767Z,29.40
2018-07-19T16:53:20.866Z,29.20
2018-07-19T16:55:49.888Z,29.20
2018-07-19T16:58:18.948Z,29.10
2018-07-19T17:00:48.066Z,29.10
2018-07-19T17:03:17.028Z,29.20
2018-07-19T17:05:45.680Z,29.10
2018-07-19T17:08:14.331Z,29.00
2018-07-19T17:10:43.161Z,28.70
2018-07-19T17:13:12.351Z,28.60
2018-07-19T17:15:41.249Z,28.60
2018-07-19T17:18:10.545Z,28.50
2018-07-19T17:20:39.425Z,28.60
2018-07-19T17:23:08.309Z,28.70
2018-07-19T17:25:37.209Z,28.70
2018-07-19T17:28:06.212Z,28.80
2018-07-19T17:30:35.033Z,28.90
2018-07-19T17:33:03.885Z,28.90
2018-07-19T17:35:32.563Z,28.80
2018-07-19T17:38:01.329Z,28.60
2018-07-19T17:42:58.633Z,28.30
2018-07-19T17:45:27.611Z,28.20
2018-07-19T17:47:56.425Z,28.10
2018-07-19T17:50:25.156Z,28.10
2018-07-19T17:52:53.955Z,28.00
2018-07-19T17:55:22.862Z,28.00
2018-07-19T17:57:51.612Z,27.80
2018-07-19T18:00:20.527Z,27.50
2018-07-19T18:02:49.328Z,27.40
2018-07-19T18:05:18.139Z,27.20
2018-07-19T18:07:47.023Z,27.20
2018-07-19T18:10:15.835Z,27.00
2018-07-19T18:12:44.770Z,26.90
2018-07-19T18:15:13.517Z,26.90
2018-07-19T18:20:10.890Z,26.80
2018-07-19T18:22:39.802Z,26.70
2018-07-19T18:25:08.734Z,26.40
2018-07-19T18:27:37.722Z,26.30
2018-07-19T18:30:07.811Z,26.30
2018-07-19T18:32:36.586Z,26.10
2018-07-19T18:35:05.471Z,25.90
2018-07-19T18:37:34.190Z,25.90
2018-07-19T18:40:03.042Z,25.70
2018-07-19T18:42:31.812Z,25.60
2018-07-19T18:45:00.698Z,25.50
2018-07-19T18:47:29.462Z,25.50
2018-07-19T18:49:58.270Z,25.50
2018-07-19T18:52:27.080Z,25.50
2018-07-19T18:54:55.840Z,25.50
2018-07-19T18:57:24.621Z,25.30
2018-07-19T18:59:53.395Z,25.10
2018-07-19T19:02:22.253Z,25.10
2018-07-19T19:04:51.409Z,25.10
2018-07-19T19:07:20.398Z,25.10
2018-07-19T19:09:49.168Z,24.90
2018-07-19T19:12:17.848Z,24.80
2018-07-19T19:14:46.706Z,24.70
2018-07-19T19:17:15.516Z,24.50
2018-07-19T19:19:44.309Z,24.60
2018-07-19T19:22:13.118Z,24.60
2018-07-19T19:24:41.890Z,24.50
2018-07-19T19:27:10.706Z,24.40
2018-07-19T19:29:39.474Z,24.30
2018-07-19T19:32:08.184Z,24.20
2018-07-19T19:34:36.954Z,24.10
2018-07-19T19:37:05.878Z,24.10
2018-07-19T19:39:34.688Z,24.00
2018-07-19T19:42:03.775Z,23.70
2018-07-19T19:44:32.547Z,23.60
2018-07-19T19:47:01.354Z,23.60
2018-07-19T19:49:30.152Z,23.60
2018-07-19T19:51:58.895Z,23.50
2018-07-19T19:54:27.652Z,23.40
2018-07-19T19:56:57.175Z,23.30
2018-07-19T19:59:25.857Z,23.20
2018-07-19T20:01:54.628Z,23.20
2018-07-19T20:04:23.316Z,23.20
2018-07-19T20:06:52.058Z,23.20
2018-07-19T20:09:22.102Z,23.10
2018-07-19T20:11:50.868Z,23.10
2018-07-19T20:14:19.584Z,23.00
2018-07-19T20:16:49.125Z,22.80
2018-07-19T20:19:17.867Z,22.70
2018-07-19T20:21:46.516Z,22.60
2018-07-19T20:24:15.150Z,22.60
2018-07-19T20:26:43.876Z,22.60
2018-07-19T20:29:12.637Z,22.60
2018-07-19T20:31:41.351Z,22.60
2018-07-19T20:34:10.274Z,22.40
2018-07-19T20:36:39.014Z,22.50
2018-07-19T20:39:08.219Z,22.40
2018-07-19T20:41:37.623Z,22.50
2018-07-19T20:44:06.480Z,22.40
2018-07-19T20:46:35.229Z,22.20
2018-07-19T20:49:04.156Z,22.10
2018-07-19T20:51:36.338Z,22.00
2018-07-19T20:54:05.078Z,21.90
2018-07-19T20:56:33.736Z,21.80
2018-07-19T20:59:02.515Z,21.80
2018-07-19T21:01:31.220Z,21.80
2018-07-19T21:04:00.655Z,21.70
2018-07-19T21:06:29.420Z,21.50
2018-07-19T21:08:58.149Z,21.40
2018-07-19T21:11:26.925Z,21.40
2018-07-19T21:13:55.621Z,21.30
2018-07-19T21:16:24.304Z,21.30
2018-07-19T21:18:53.030Z,21.40
2018-07-19T21:21:21.707Z,21.30
2018-07-19T21:23:50.395Z,21.30
2018-07-19T21:26:19.067Z,21.30
2018-07-19T21:28:47.864Z,21.30
2018-07-19T21:31:16.627Z,21.20
2018-07-19T21:33:45.281Z,21.10
2018-07-19T21:36:13.996Z,21.10
2018-07-19T21:38:43.871Z,21.00
2018-07-19T21:41:14.130Z,20.90
2018-07-19T21:43:43.986Z,20.90
2018-07-19T21:46:13.956Z,20.80
2018-07-19T21:48:43.395Z,20.80
2018-07-19T21:51:12.155Z,20.80
2018-07-19T21:53:41.329Z,20.80
2018-07-19T21:56:10.167Z,20.80
2018-07-19T21:58:38.891Z,20.80
2018-07-19T22:01:10.951Z,20.70
2018-07-19T22:03:40.262Z,20.70
2018-07-19T22:06:09.819Z,20.60
2018-07-19T22:08:38.574Z,20.60
2018-07-19T22:11:07.372Z,20.50
2018-07-19T22:13:36.170Z,20.50
2018-07-19T22:16:04.897Z,20.50
2018-07-19T22:18:33.646Z,20.40
2018-07-19T22:21:02.412Z,20.30
2018-07-19T22:23:31.174Z,20.20
2018-07-19T22:26:00.002Z,20.10
2018-07-19T22:28:28.736Z,20.10
2018-07-19T22:30:57.444Z,20.00
2018-07-19T22:33:26.089Z,20.00
2018-07-19T22:35:54.875Z,20.00
2018-07-19T22:38:23.711Z,19.90
2018-07-19T22:40:52.497Z,19.90
2018-07-19T22:43:21.189Z,19.90
2018-07-19T22:45:49.859Z,19.80
2018-07-19T22:48:18.564Z,19.80
2018-07-19T22:50:47.389Z,19.70
2018-07-19T22:58:12.797Z,19.60
2018-07-19T23:00:41.459Z,19.50
2018-07-19T23:03:10.247Z,19.40
2018-07-19T23:05:38.968Z,19.30
2018-07-19T23:08:07.648Z,19.30
2018-07-19T23:10:36.366Z,19.40
2018-07-19T23:13:05.117Z,19.40
2018-07-19T23:15:33.819Z,19.30
2018-07-19T23:18:02.513Z,19.30
2018-07-19T23:20:31.200Z,19.30
2018-07-19T23:22:59.870Z,19.30
2018-07-19T23:25:28.573Z,19.30
2018-07-19T23:27:57.499Z,19.20
2018-07-19T23:30:29.771Z,19.30
2018-07-19T23:32:58.537Z,19.30
2018-07-19T23:35:30.966Z,19.30
2018-07-19T23:38:01.480Z,19.30
2018-07-19T23:40:33.001Z,19.30
2018-07-19T23:43:11.708Z,19.20
2018-07-19T23:45:47.524Z,19.20
2018-07-19T23:48:16.265Z,19.20
2018-07-19T23:50:44.984Z,19.20
2018-07-19T23:53:13.678Z,19.20
2018-07-19T23:55:42.338Z,19.20
2018-07-19T23:58:11.055Z,19.20
